createdAt,value
2018-11-13T00:00:56.231Z,8.5
2018-11-13T00:05:58.544Z,8.6
2018-11-13T00:11:00.813Z,8.5
2018-11-13T00:16:03.009Z,8.5
2018-11-13T00:21:05.355Z,8.5
2018-11-13T00:26:07.679Z,8.5
2018-11-13T00:31:09.984Z,8.5
2018-11-13T00:36:13.651Z,8.5
2018-11-13T00:41:14.435Z,8.5
2018-11-13T00:46:16.771Z,8.5
2018-11-13T00:51:19.167Z,8.5
2018-11-13T00:56:21.401Z,8.6
2018-11-13T01:01:23.709Z,8.6
2018-11-13T01:06:26.031Z,8.6
2018-11-13T01:11:28.228Z,8.7
2018-11-13T01:16:30.610Z,8.8
2018-11-13T01:21:32.790Z,8.8
2018-11-13T01:26:35.193Z,8.9
2018-11-13T01:36:39.720Z,8.9
2018-11-13T01:41:42.107Z,9
2018-11-13T01:46:44.403Z,9
2018-11-13T01:51:46.843Z,9.1
2018-11-13T01:56:48.903Z,9.2
2018-11-13T02:01:51.304Z,9.3
2018-11-13T02:06:53.473Z,9.3
2018-11-13T02:11:55.828Z,9.3
2018-11-13T02:16:58.168Z,9.3
2018-11-13T02:22:00.411Z,9.3
2018-11-13T02:27:02.739Z,9.3
2018-11-13T02:32:04.946Z,9.3
2018-11-13T02:37:07.275Z,9.3
2018-11-13T02:42:09.504Z,9.3
2018-11-13T02:47:13.412Z,9.3
2018-11-13T02:52:14.189Z,9.3
2018-11-13T02:57:16.489Z,9.4
2018-11-13T03:02:18.783Z,9.3
2018-11-13T03:07:21.052Z,9.3
2018-11-13T03:12:23.409Z,9.3
2018-11-13T03:17:25.786Z,9.3
2018-11-13T03:22:27.912Z,9.3
2018-11-13T03:27:30.129Z,9.3
2018-11-13T03:32:32.637Z,9.3
2018-11-13T03:37:34.898Z,9.2
2018-11-13T03:42:37.136Z,9.3
2018-11-13T03:47:39.432Z,9.3
2018-11-13T03:52:41.870Z,9.4
2018-11-13T03:57:44.007Z,9.4
2018-11-13T04:02:46.386Z,9.5
2018-11-13T04:07:48.695Z,9.5
2018-11-13T04:12:50.933Z,9.6
2018-11-13T04:17:59.044Z,9.5
2018-11-13T04:22:55.473Z,9.6
2018-11-13T04:27:57.700Z,9.5
2018-11-13T04:33:00.067Z,9.6
2018-11-13T04:38:02.406Z,9.6
2018-11-13T04:43:04.637Z,9.6
2018-11-13T04:48:06.862Z,9.6
2018-11-13T04:53:09.291Z,9.7
2018-11-13T04:58:11.564Z,9.7
2018-11-13T05:03:13.870Z,9.7
2018-11-13T05:08:17.107Z,9.7
2018-11-13T05:13:18.467Z,9.7
2018-11-13T05:18:20.656Z,9.7
2018-11-13T05:23:23.000Z,9.8
2018-11-13T05:28:25.379Z,9.7
2018-11-13T05:33:27.604Z,9.6
2018-11-13T05:38:29.846Z,9.6
2018-11-13T05:43:32.153Z,9.6
2018-11-13T05:48:34.507Z,9.5
2018-11-13T05:53:36.736Z,9.5
2018-11-13T05:58:40.489Z,9.6
2018-11-13T06:03:41.458Z,9.6
2018-11-13T06:08:43.738Z,9.6
2018-11-13T06:13:45.877Z,9.6
2018-11-13T06:18:48.305Z,9.7
2018-11-13T06:23:50.567Z,9.7
2018-11-13T06:28:52.780Z,9.8
2018-11-13T06:33:56.465Z,9.8
2018-11-13T06:38:57.511Z,9.8
2018-11-13T06:43:59.703Z,9.8
2018-11-13T06:49:03.512Z,9.8
2018-11-13T06:54:04.279Z,9.8
2018-11-13T06:59:06.590Z,9.8
2018-11-13T07:04:08.847Z,9.7
2018-11-13T07:09:11.842Z,9.7
2018-11-13T07:14:13.552Z,9.7
2018-11-13T07:19:15.743Z,9.7
2018-11-13T07:24:18.079Z,9.7
2018-11-13T07:29:20.396Z,9.8
2018-11-13T07:34:22.771Z,9.8
2018-11-13T07:39:26.465Z,9.9
2018-11-13T07:44:28.472Z,10
2018-11-13T07:49:29.585Z,10
2018-11-13T07:54:31.884Z,10
2018-11-13T07:59:34.182Z,10.1
2018-11-13T08:04:36.353Z,10.1
2018-11-13T08:09:38.740Z,10.1
2018-11-13T08:14:41.001Z,10.1
2018-11-13T08:19:43.293Z,10.2
2018-11-13T08:24:45.564Z,10.2
2018-11-13T08:29:47.864Z,10.2
2018-11-13T08:34:50.280Z,10.2
2018-11-13T08:39:52.409Z,10.2
2018-11-13T08:44:54.687Z,10.3
2018-11-13T08:49:57.127Z,10.4
2018-11-13T08:54:59.325Z,10.4
2018-11-13T09:00:01.645Z,10.4
2018-11-13T09:05:04.013Z,10.4
2018-11-13T09:10:07.379Z,10.4
2018-11-13T09:15:08.533Z,10.4
2018-11-13T09:20:11.915Z,10.5
2018-11-13T09:25:14.934Z,10.5
2018-11-13T09:30:16.513Z,10.5
2018-11-13T09:35:17.776Z,10.6
2018-11-13T09:40:19.910Z,10.8
2018-11-13T09:45:22.417Z,10.9
2018-11-13T09:50:24.761Z,11.3
2018-11-13T09:55:26.845Z,11.4
2018-11-13T10:00:29.257Z,11.3
2018-11-13T10:05:31.685Z,11.3
2018-11-13T10:10:33.721Z,11.3
2018-11-13T10:15:36.083Z,11.4
2018-11-13T10:20:38.266Z,11.4
2018-11-13T10:25:40.723Z,11.5
2018-11-13T10:30:42.979Z,11.6
2018-11-13T10:35:45.199Z,11.7
2018-11-13T10:40:47.741Z,11.7
2018-11-13T10:45:50.038Z,11.8
2018-11-13T10:50:53.354Z,11.9
2018-11-13T10:55:54.431Z,12.1
2018-11-13T11:00:56.985Z,12.2
2018-11-13T11:05:59.023Z,12.4
2018-11-13T11:11:01.284Z,12.5
2018-11-13T11:16:03.534Z,12.7
2018-11-13T11:21:05.802Z,12.9
2018-11-13T11:26:08.154Z,13
2018-11-13T11:31:10.526Z,13.3
2018-11-13T11:36:12.937Z,13.6
2018-11-13T11:41:15.238Z,14.1
2018-11-13T11:46:17.333Z,14.6
2018-11-13T11:51:19.732Z,14.6
2018-11-13T11:56:21.929Z,14.3
2018-11-13T12:01:24.170Z,13.9
2018-11-13T12:06:26.588Z,13.6
2018-11-13T12:11:28.866Z,13.4
2018-11-13T12:16:31.036Z,13.1
2018-11-13T12:21:33.314Z,13.1
2018-11-13T12:26:35.707Z,13.1
2018-11-13T12:31:39.757Z,13.1
2018-11-13T12:36:40.163Z,13.1
2018-11-13T12:41:42.638Z,13.2
2018-11-13T12:46:44.774Z,13.3
2018-11-13T12:51:47.245Z,13.3
2018-11-13T12:56:49.407Z,13.2
2018-11-13T13:01:53.299Z,13.1
2018-11-13T13:06:54.112Z,13.1
2018-11-13T13:11:56.624Z,13.1
2018-11-13T13:16:59.684Z,13.3
2018-11-13T13:22:01.025Z,13.4
2018-11-13T13:27:03.216Z,13.5
2018-11-13T13:32:05.462Z,13.3
2018-11-13T13:37:07.903Z,13.2
2018-11-13T13:42:10.071Z,13.1
2018-11-13T13:47:12.318Z,13.1
2018-11-13T13:52:16.178Z,13.1
2018-11-13T13:57:16.965Z,13.1
2018-11-13T14:02:19.375Z,13.2
2018-11-13T14:07:21.659Z,13.2
2018-11-13T14:12:23.833Z,13.2
2018-11-13T14:17:26.130Z,13.1
2018-11-13T14:22:28.548Z,13
2018-11-13T14:27:30.787Z,12.9
2018-11-13T14:32:33.020Z,12.9
2018-11-13T14:37:35.237Z,12.8
2018-11-13T14:42:37.818Z,12.7
2018-11-13T14:47:40.008Z,12.6
2018-11-13T14:52:42.189Z,12.6
2018-11-13T14:57:44.447Z,12.4
2018-11-13T15:02:46.898Z,12.3
2018-11-13T15:07:49.233Z,12.3
2018-11-13T15:12:51.430Z,12.2
2018-11-13T15:17:53.742Z,12.1
2018-11-13T15:22:55.989Z,12.1
2018-11-13T15:27:58.248Z,12
2018-11-13T15:33:00.505Z,12
2018-11-13T15:38:04.650Z,11.9
2018-11-13T15:43:05.139Z,11.8
2018-11-13T15:48:08.715Z,11.7
2018-11-13T15:53:10.676Z,11.6
2018-11-13T15:58:12.012Z,11.5
2018-11-13T16:03:14.343Z,11.4
2018-11-13T16:08:16.887Z,11.3
2018-11-13T16:13:18.945Z,11.2
2018-11-13T16:18:21.270Z,11.1
2018-11-13T16:23:23.515Z,11
2018-11-13T16:28:25.847Z,10.9
2018-11-13T16:33:28.115Z,10.8
2018-11-13T16:38:30.532Z,10.7
2018-11-13T16:43:32.683Z,10.6
2018-11-13T16:48:34.984Z,10.5
2018-11-13T16:53:37.272Z,10.5
2018-11-13T16:58:39.533Z,10.4
2018-11-13T17:03:43.349Z,10.5
2018-11-13T17:08:44.343Z,10.4
2018-11-13T17:13:46.419Z,10.3
2018-11-13T17:18:48.922Z,10.3
2018-11-13T17:23:51.151Z,10.3
2018-11-13T17:28:53.394Z,10.3
2018-11-13T17:33:55.593Z,10.3
2018-11-13T17:38:57.890Z,10.3
2018-11-13T17:44:00.222Z,10.3
2018-11-13T17:49:02.558Z,10.2
2018-11-13T17:54:04.807Z,10.2
2018-11-13T17:59:07.106Z,10.1
2018-11-13T18:04:09.345Z,10
2018-11-13T18:09:11.732Z,10
2018-11-13T18:14:14.217Z,9.9
2018-11-13T18:19:16.303Z,9.8
2018-11-13T18:24:18.585Z,9.7
2018-11-13T18:29:20.774Z,9.7
2018-11-13T18:34:23.163Z,9.6
2018-11-13T18:39:25.540Z,9.5
2018-11-13T18:44:27.669Z,9.5
2018-11-13T18:49:29.980Z,9.4
2018-11-13T18:54:33.562Z,9.4
2018-11-13T18:59:35.120Z,9.3
2018-11-13T19:04:36.937Z,9.2
2018-11-13T19:09:39.229Z,9.2
2018-11-13T19:14:41.546Z,9.2
2018-11-13T19:19:43.920Z,9.1
2018-11-13T19:24:46.119Z,9
2018-11-13T19:29:48.567Z,9
2018-11-13T19:34:50.736Z,9
2018-11-13T19:39:52.972Z,8.9
2018-11-13T19:44:55.395Z,8.9
2018-11-13T19:49:57.627Z,8.9
2018-11-13T19:54:59.830Z,8.9
2018-11-13T20:00:02.119Z,8.9
2018-11-13T20:05:04.470Z,9
2018-11-13T20:10:06.701Z,9
2018-11-13T20:15:09.122Z,9
2018-11-13T20:20:11.329Z,9.1
2018-11-13T20:25:13.717Z,9.1
2018-11-13T20:30:15.910Z,9.3
2018-11-13T20:35:19.972Z,9.3
2018-11-13T20:40:20.567Z,9.5
2018-11-13T20:45:22.855Z,9.6
2018-11-13T20:50:25.141Z,9.6
2018-11-13T20:55:27.383Z,9.7
2018-11-13T21:00:29.729Z,9.7
2018-11-13T21:05:32.137Z,9.7
2018-11-13T21:10:34.717Z,9.8
2018-11-13T21:15:36.657Z,9.8
2018-11-13T21:20:38.959Z,9.8
2018-11-13T21:25:41.251Z,9.8
2018-11-13T21:30:44.624Z,9.8
2018-11-13T21:35:45.784Z,9.8
2018-11-13T21:40:48.039Z,9.8
2018-11-13T21:45:50.429Z,9.7
2018-11-13T21:50:52.535Z,9.6
2018-11-13T21:55:54.830Z,9.6
2018-11-13T22:00:57.294Z,9.6
2018-11-13T22:06:00.985Z,9.6
2018-11-13T22:11:01.853Z,9.5
2018-11-13T22:16:04.393Z,9.4
2018-11-13T22:21:06.491Z,9.3
2018-11-13T22:26:08.621Z,9.3
2018-11-13T22:31:10.965Z,9.2
2018-11-13T22:36:13.306Z,9.1
2018-11-13T22:41:15.619Z,9.1
2018-11-13T22:46:17.832Z,9
2018-11-13T22:51:20.238Z,9
2018-11-13T22:56:22.575Z,8.9
2018-11-13T23:01:24.910Z,8.8
2018-11-13T23:06:27.014Z,8.8
2018-11-13T23:11:29.347Z,8.7
2018-11-13T23:16:31.659Z,8.7
2018-11-13T23:21:33.879Z,8.7
2018-11-13T23:26:36.366Z,8.6
2018-11-13T23:31:38.409Z,8.6
2018-11-13T23:36:40.807Z,8.5
2018-11-13T23:41:43.270Z,8.5
2018-11-13T23:46:45.429Z,8.4
2018-11-13T23:51:47.613Z,8.3
2018-11-13T23:56:49.950Z,8.3
